Terminal Aerodrome Forecast
Issued by NWS Charleston, WV

Current Version | Previous Version | Graphics & Text | Print | Product List | Glossary On
Versions: 1 2 3 4 5 6 7 8 9 10 11 12 13 14 15 16 17 18 19 20 21 22 23 24 25
784
FTUS41 KRLX 240501 AAC
TAFEKN
TAF AMD
KEKN 240501Z 2405/2424 00000KT 1/2SM FG SCT001 BKN025
     FM240600 22008KT P6SM OVC015
      TEMPO 2407/2410 4SM -SHRA BR BKN015
     FM241000 20006KT P6SM OVC020
     FM241500 23010KT P6SM VCSH BKN030
     FM242000 24009KT P6SM BKN040=

USA.gov is the U.S. government's official web portal to all federal, state and local government web resources and services.